createdAt,value
2018-06-09T00:00:45.532Z,18.00
2018-06-09T00:01:49.553Z,18.00
2018-06-09T00:02:53.613Z,18.10
2018-06-09T00:03:57.670Z,18.10
2018-06-09T00:05:02.087Z,18.10
2018-06-09T00:06:06.466Z,18.00
2018-06-09T00:07:10.556Z,18.00
2018-06-09T00:08:14.563Z,18.00
2018-06-09T00:09:18.582Z,18.10
2018-06-09T00:10:22.605Z,18.10
2018-06-09T00:12:30.275Z,18.20
2018-06-09T00:13:34.315Z,18.20
2018-06-09T00:14:38.430Z,18.10
2018-06-09T00:15:42.450Z,18.10
2018-06-09T00:16:46.409Z,18.10
2018-06-09T00:17:50.367Z,17.90
2018-06-09T00:18:54.399Z,17.90
2018-06-09T00:19:58.427Z,17.90
2018-06-09T00:22:06.088Z,17.80
2018-06-09T00:23:10.143Z,17.90
2018-06-09T00:24:14.145Z,17.90
2018-06-09T00:25:18.239Z,17.90
2018-06-09T00:26:22.262Z,17.90
2018-06-09T00:27:26.347Z,17.90
2018-06-09T00:28:30.403Z,17.90
2018-06-09T00:29:34.440Z,17.90
2018-06-09T00:30:38.482Z,18.00
2018-06-09T00:31:42.498Z,17.90
2018-06-09T00:33:50.107Z,17.90
2018-06-09T00:34:54.141Z,17.90
2018-06-09T00:35:58.156Z,17.90
2018-06-09T00:37:02.166Z,17.90
2018-06-09T00:38:06.501Z,17.90
2018-06-09T00:39:10.572Z,17.90
2018-06-09T00:40:14.654Z,17.90
2018-06-09T00:41:18.735Z,17.90
2018-06-09T00:42:22.851Z,17.90
2018-06-09T00:43:26.853Z,18.00
2018-06-09T00:44:30.879Z,18.00
2018-06-09T00:45:34.902Z,18.00
2018-06-09T00:46:38.940Z,18.00
2018-06-09T00:47:42.990Z,17.90
2018-06-09T00:48:47.044Z,17.90
2018-06-09T00:49:51.099Z,18.00
2018-06-09T00:50:55.063Z,18.00
2018-06-09T00:51:59.152Z,18.10
2018-06-09T00:53:03.189Z,18.10
2018-06-09T00:54:07.207Z,18.10
2018-06-09T00:55:11.253Z,18.10
2018-06-09T00:56:26.770Z,18.10
2018-06-09T00:57:31.097Z,18.10
2018-06-09T00:58:35.190Z,18.10
2018-06-09T00:59:39.226Z,17.90
2018-06-09T01:01:46.942Z,17.80
2018-06-09T01:02:50.983Z,17.80
2018-06-09T01:03:55.027Z,17.80
2018-06-09T01:04:59.100Z,17.80
2018-06-09T01:06:03.082Z,17.80
2018-06-09T01:07:07.152Z,17.90
2018-06-09T01:08:11.193Z,17.80
2018-06-09T01:09:15.210Z,17.90
2018-06-09T01:10:19.260Z,17.90
2018-06-09T01:11:23.312Z,17.90
2018-06-09T01:12:27.273Z,17.90
2018-06-09T01:13:31.275Z,17.90
2018-06-09T01:14:35.447Z,17.90
2018-06-09T01:15:39.428Z,17.90
2018-06-09T01:16:43.430Z,17.90
2018-06-09T01:17:47.501Z,17.90
2018-06-09T01:18:51.469Z,17.80
2018-06-09T01:19:55.478Z,17.80
2018-06-09T01:20:59.632Z,17.70
2018-06-09T01:22:03.678Z,17.80
2018-06-09T01:23:07.837Z,17.80
2018-06-09T01:24:11.802Z,17.80
2018-06-09T01:25:15.879Z,17.80
2018-06-09T01:26:19.910Z,17.80
2018-06-09T01:27:23.946Z,17.80
2018-06-09T01:28:27.935Z,17.80
2018-06-09T01:29:31.980Z,17.80
2018-06-09T01:30:36.000Z,17.80
2018-06-09T01:31:40.052Z,17.80
2018-06-09T01:32:44.131Z,17.80
2018-06-09T01:33:48.249Z,17.80
2018-06-09T01:34:52.243Z,17.80
2018-06-09T01:35:56.262Z,17.70
2018-06-09T01:37:00.266Z,17.70
2018-06-09T01:38:04.543Z,17.70
2018-06-09T01:39:09.094Z,17.60
2018-06-09T01:40:13.142Z,17.60
2018-06-09T01:41:17.135Z,17.70
2018-06-09T01:42:21.106Z,17.70
2018-06-09T01:44:28.823Z,17.60
2018-06-09T01:45:32.817Z,17.70
2018-06-09T01:46:36.835Z,17.70
2018-06-09T01:47:40.824Z,17.70
2018-06-09T01:48:44.873Z,17.70
2018-06-09T01:49:48.902Z,17.60
2018-06-09T01:50:52.904Z,17.70
2018-06-09T01:51:56.936Z,17.70
2018-06-09T01:53:00.983Z,17.70
2018-06-09T01:54:04.955Z,17.60
2018-06-09T01:55:08.981Z,17.60
2018-06-09T01:56:12.982Z,17.70
2018-06-09T01:57:17.004Z,17.70
2018-06-09T01:58:21.037Z,17.70
2018-06-09T01:59:25.136Z,17.70
2018-06-09T02:00:29.144Z,17.60
2018-06-09T02:01:33.461Z,17.60
2018-06-09T02:02:37.464Z,17.60
2018-06-09T02:03:41.525Z,17.60
2018-06-09T02:04:45.621Z,17.60
2018-06-09T02:05:49.654Z,17.60
2018-06-09T02:06:53.730Z,17.60
2018-06-09T02:07:57.763Z,17.50
2018-06-09T02:09:01.757Z,17.50
2018-06-09T02:10:05.943Z,17.50
2018-06-09T02:11:09.968Z,17.50
2018-06-09T02:12:13.982Z,17.40
2018-06-09T02:13:17.993Z,17.40
2018-06-09T02:14:22.109Z,17.40
2018-06-09T02:15:26.174Z,17.40
2018-06-09T02:16:30.214Z,17.40
2018-06-09T02:17:34.250Z,17.40
2018-06-09T02:18:38.251Z,17.40
2018-06-09T02:19:42.267Z,17.40
2018-06-09T02:20:46.244Z,17.40
2018-06-09T02:21:50.302Z,17.40
2018-06-09T02:22:54.300Z,17.30
2018-06-09T02:23:58.280Z,17.40
2018-06-09T02:25:02.303Z,17.40
2018-06-09T02:26:06.319Z,17.40
2018-06-09T02:27:10.362Z,17.40
2018-06-09T02:28:14.378Z,17.40
2018-06-09T02:29:18.497Z,17.40
2018-06-09T02:30:22.512Z,17.40
2018-06-09T02:31:26.624Z,17.30
2018-06-09T02:32:30.658Z,17.30
2018-06-09T02:33:34.703Z,17.20
2018-06-09T02:34:38.687Z,17.20
2018-06-09T02:35:42.699Z,17.30
2018-06-09T02:36:46.771Z,17.30
2018-06-09T02:37:50.734Z,17.30
2018-06-09T02:38:54.693Z,17.20
2018-06-09T02:39:58.768Z,17.20
2018-06-09T02:41:02.803Z,17.20
2018-06-09T02:42:06.888Z,17.20
2018-06-09T02:43:10.890Z,17.20
2018-06-09T02:44:14.883Z,17.20
2018-06-09T02:45:18.951Z,17.20
2018-06-09T02:46:22.964Z,17.10
2018-06-09T02:47:26.962Z,17.10
2018-06-09T02:48:30.958Z,17.20
2018-06-09T02:49:34.933Z,17.20
2018-06-09T02:50:38.971Z,17.20
2018-06-09T02:51:42.977Z,17.10
2018-06-09T02:52:47.122Z,17.10
2018-06-09T02:53:51.144Z,17.10
2018-06-09T02:54:55.138Z,17.10
2018-06-09T02:55:59.481Z,17.00
2018-06-09T02:57:03.500Z,17.00
2018-06-09T02:58:07.626Z,17.10
2018-06-09T02:59:11.718Z,17.10
2018-06-09T03:00:15.925Z,17.10
2018-06-09T03:01:19.977Z,17.10
2018-06-09T03:02:24.085Z,17.00
2018-06-09T03:03:28.078Z,17.00
2018-06-09T03:04:32.090Z,16.90
2018-06-09T03:05:36.133Z,16.90
2018-06-09T03:06:40.151Z,16.90
2018-06-09T03:07:44.177Z,16.80
2018-06-09T03:08:48.189Z,16.80
2018-06-09T03:09:52.154Z,16.90
2018-06-09T03:10:56.253Z,16.90
2018-06-09T03:12:00.307Z,16.80
2018-06-09T03:13:04.338Z,16.80
2018-06-09T03:14:08.362Z,16.80
2018-06-09T03:15:12.399Z,16.70
2018-06-09T03:16:16.370Z,16.70
2018-06-09T03:17:20.370Z,16.70
2018-06-09T03:18:24.391Z,16.70
2018-06-09T03:19:28.447Z,16.70
2018-06-09T03:20:32.502Z,16.80
2018-06-09T03:21:36.483Z,16.80
2018-06-09T03:22:40.487Z,16.80
2018-06-09T03:23:44.484Z,16.80
2018-06-09T03:24:48.469Z,16.70
2018-06-09T03:26:56.183Z,16.70
2018-06-09T03:28:00.179Z,16.70
2018-06-09T03:29:04.162Z,16.70
2018-06-09T03:30:08.206Z,16.70
2018-06-09T03:31:12.332Z,16.80
2018-06-09T03:32:16.441Z,16.80
2018-06-09T03:33:20.428Z,16.80
2018-06-09T03:34:24.405Z,16.70
2018-06-09T03:35:28.422Z,16.70
2018-06-09T03:36:32.415Z,16.70
2018-06-09T03:37:36.422Z,16.70
2018-06-09T03:38:40.396Z,16.80
2018-06-09T03:39:44.344Z,16.70
2018-06-09T03:40:48.353Z,16.70
2018-06-09T03:41:52.401Z,16.80
2018-06-09T03:42:56.411Z,16.70
2018-06-09T03:44:00.469Z,16.70
2018-06-09T03:45:04.600Z,16.70
2018-06-09T03:46:08.558Z,16.80
2018-06-09T03:47:12.691Z,16.80
2018-06-09T03:48:16.699Z,16.90
2018-06-09T03:49:20.744Z,16.90
2018-06-09T03:50:24.752Z,16.80
2018-06-09T03:51:28.781Z,16.90
2018-06-09T03:52:32.823Z,16.90
2018-06-09T03:53:36.822Z,16.80
2018-06-09T03:54:40.802Z,16.80
2018-06-09T03:55:44.809Z,16.80
2018-06-09T03:56:48.796Z,16.90
2018-06-09T03:57:52.909Z,17.00
2018-06-09T04:00:00.613Z,17.00
2018-06-09T04:01:04.651Z,17.00
2018-06-09T04:02:08.663Z,17.00
2018-06-09T04:03:12.687Z,17.10
2018-06-09T04:04:16.710Z,17.10
2018-06-09T04:05:20.663Z,17.20
2018-06-09T04:06:24.660Z,17.20
2018-06-09T04:07:28.637Z,17.30
2018-06-09T04:08:32.634Z,17.40
2018-06-09T04:09:36.662Z,17.40
2018-06-09T04:10:40.707Z,17.40
2018-06-09T04:11:44.719Z,17.50
2018-06-09T04:12:48.738Z,17.50
2018-06-09T04:13:52.738Z,17.50
2018-06-09T04:14:56.752Z,17.40
2018-06-09T04:16:00.772Z,17.40
2018-06-09T04:17:04.795Z,17.50
2018-06-09T04:18:08.813Z,17.50
2018-06-09T04:19:12.797Z,17.50
2018-06-09T04:21:20.492Z,17.50
2018-06-09T04:22:24.456Z,17.60
2018-06-09T04:23:28.462Z,17.60
2018-06-09T04:24:32.473Z,17.60
2018-06-09T04:25:36.589Z,17.60
2018-06-09T04:26:40.605Z,17.50
2018-06-09T04:27:44.603Z,17.50
2018-06-09T04:28:48.598Z,17.60
2018-06-09T04:29:52.592Z,17.60
2018-06-09T04:30:56.612Z,17.70
2018-06-09T04:32:00.623Z,17.70
2018-06-09T04:33:04.627Z,17.70
2018-06-09T04:34:08.675Z,17.70
2018-06-09T04:35:12.702Z,17.60
2018-06-09T04:36:16.726Z,17.60
2018-06-09T04:37:20.809Z,17.60
2018-06-09T04:38:24.839Z,17.70
2018-06-09T04:39:28.988Z,17.60
2018-06-09T04:40:32.934Z,17.60
2018-06-09T04:41:37.042Z,17.60
2018-06-09T04:42:41.025Z,17.60
2018-06-09T04:43:45.107Z,17.70
2018-06-09T04:44:49.122Z,17.70
2018-06-09T04:45:53.120Z,17.70
2018-06-09T04:46:57.117Z,17.70
2018-06-09T04:48:01.133Z,17.70
2018-06-09T04:49:05.171Z,17.70
2018-06-09T04:50:09.212Z,17.70
2018-06-09T04:51:13.241Z,17.70
2018-06-09T04:52:17.288Z,17.70
2018-06-09T04:53:21.268Z,17.70
2018-06-09T04:54:25.309Z,17.70
2018-06-09T04:55:29.341Z,17.70
2018-06-09T04:56:33.372Z,17.60
2018-06-09T04:57:37.396Z,17.60
2018-06-09T04:58:41.399Z,17.60
2018-06-09T04:59:45.380Z,17.60
2018-06-09T05:00:49.374Z,17.60
2018-06-09T05:01:53.378Z,17.60
2018-06-09T05:02:57.429Z,17.60
2018-06-09T05:04:01.419Z,17.60
2018-06-09T05:05:05.490Z,17.60
2018-06-09T05:06:09.594Z,17.60
2018-06-09T05:07:13.619Z,17.60
2018-06-09T05:08:17.627Z,17.70
2018-06-09T05:09:21.749Z,17.70
2018-06-09T05:10:25.742Z,17.70
2018-06-09T05:11:29.865Z,17.70
2018-06-09T05:12:34.034Z,17.70
2018-06-09T05:13:38.044Z,17.70
2018-06-09T05:14:42.047Z,17.70
2018-06-09T05:15:46.103Z,17.70
2018-06-09T05:16:50.116Z,17.70
2018-06-09T05:17:54.155Z,17.70
2018-06-09T05:18:58.171Z,17.70
2018-06-09T05:20:02.155Z,17.80
2018-06-09T05:21:06.244Z,17.70
2018-06-09T05:22:10.258Z,17.70
2018-06-09T05:23:14.277Z,17.70
2018-06-09T05:24:18.281Z,17.80
2018-06-09T05:25:22.337Z,17.80
2018-06-09T05:26:26.375Z,17.80
2018-06-09T05:27:30.380Z,17.80
2018-06-09T05:28:34.457Z,17.80
2018-06-09T05:29:38.463Z,17.80
2018-06-09T05:30:42.521Z,17.80
2018-06-09T05:31:46.510Z,17.80
2018-06-09T05:32:50.562Z,17.90
2018-06-09T05:33:54.575Z,17.90
2018-06-09T05:34:58.565Z,17.90
2018-06-09T05:36:02.552Z,17.90
2018-06-09T05:37:06.591Z,17.90
2018-06-09T05:38:10.638Z,17.90
2018-06-09T05:39:14.647Z,18.00
2018-06-09T05:40:18.730Z,18.10
2018-06-09T05:41:22.708Z,18.00
2018-06-09T05:42:26.706Z,18.10
2018-06-09T05:44:34.387Z,18.10
2018-06-09T05:45:38.398Z,18.10
2018-06-09T05:46:42.380Z,18.10
2018-06-09T05:47:46.442Z,18.20
2018-06-09T05:48:50.478Z,18.20
2018-06-09T05:49:54.470Z,18.20
2018-06-09T05:50:58.671Z,18.20
2018-06-09T05:52:02.748Z,18.20
2018-06-09T05:53:06.834Z,18.20
2018-06-09T05:54:11.085Z,18.20
2018-06-09T05:55:15.420Z,18.20
2018-06-09T05:56:19.818Z,18.20
2018-06-09T05:57:24.436Z,18.20
2018-06-09T05:58:28.584Z,18.20
2018-06-09T05:59:32.987Z,18.30
2018-06-09T06:00:37.243Z,18.30
2018-06-09T06:01:41.702Z,18.30
2018-06-09T06:02:46.818Z,18.30
2018-06-09T06:03:51.184Z,18.40
2018-06-09T06:04:55.321Z,18.40
2018-06-09T06:07:03.760Z,18.50
2018-06-09T06:08:07.992Z,18.50
2018-06-09T06:09:12.534Z,18.50
2018-06-09T06:10:16.773Z,18.60
2018-06-09T06:11:21.057Z,18.70
2018-06-09T06:12:25.503Z,18.70
2018-06-09T06:13:29.903Z,18.70
2018-06-09T06:14:34.458Z,18.70
2018-06-09T06:15:38.735Z,18.80
2018-06-09T06:16:43.205Z,18.70
2018-06-09T06:17:47.304Z,18.70
2018-06-09T06:18:51.564Z,18.70
2018-06-09T06:20:59.167Z,18.70
2018-06-09T06:22:03.187Z,18.70
2018-06-09T06:23:07.175Z,18.80
2018-06-09T06:24:11.203Z,18.80
2018-06-09T06:25:15.202Z,18.90
2018-06-09T06:26:19.202Z,18.90
2018-06-09T06:27:23.161Z,18.90
2018-06-09T06:28:27.169Z,18.90
2018-06-09T06:29:31.198Z,18.90
2018-06-09T06:30:35.208Z,18.90
2018-06-09T06:31:39.235Z,19.00
2018-06-09T06:32:43.239Z,19.00
2018-06-09T06:33:47.279Z,19.00
2018-06-09T06:34:51.316Z,19.00
2018-06-09T06:35:55.382Z,19.10
2018-06-09T06:36:59.483Z,19.00
2018-06-09T06:38:03.587Z,19.00
2018-06-09T06:39:08.906Z,19.10
2018-06-09T06:41:16.604Z,19.20
2018-06-09T06:42:20.601Z,19.30
2018-06-09T06:43:24.645Z,19.40
2018-06-09T06:44:28.616Z,19.40
2018-06-09T06:45:32.678Z,19.40
2018-06-09T06:46:36.665Z,19.50
2018-06-09T06:47:40.711Z,19.50
2018-06-09T06:48:44.760Z,19.50
2018-06-09T06:49:48.719Z,19.60
2018-06-09T06:50:52.749Z,19.60
2018-06-09T06:51:56.731Z,19.60
2018-06-09T06:53:00.722Z,19.60
2018-06-09T06:54:04.717Z,19.60
2018-06-09T06:55:08.766Z,19.60
2018-06-09T06:56:12.741Z,19.60
2018-06-09T06:57:16.759Z,19.70
2018-06-09T06:58:20.803Z,19.70
2018-06-09T06:59:24.888Z,19.70
2018-06-09T07:00:28.841Z,19.70
2018-06-09T07:01:32.887Z,19.80
2018-06-09T07:02:37.011Z,19.90
2018-06-09T07:03:40.981Z,19.90
2018-06-09T07:04:45.146Z,19.90
2018-06-09T07:05:49.186Z,19.80
2018-06-09T07:06:53.201Z,19.80
2018-06-09T07:07:57.249Z,19.90
2018-06-09T07:09:01.237Z,20.00
2018-06-09T07:10:05.244Z,20.00
2018-06-09T07:11:09.306Z,20.00
2018-06-09T07:12:13.317Z,20.00
2018-06-09T07:14:20.966Z,20.00
2018-06-09T07:15:24.962Z,20.10
2018-06-09T07:16:29.023Z,20.10
2018-06-09T07:17:32.995Z,20.10
2018-06-09T07:18:37.013Z,20.10
2018-06-09T07:19:41.030Z,20.20
2018-06-09T07:20:45.020Z,20.20
2018-06-09T07:21:49.111Z,20.30
2018-06-09T07:22:53.067Z,20.30
2018-06-09T07:23:57.086Z,20.30
2018-06-09T07:25:01.118Z,20.30
2018-06-09T07:26:05.320Z,20.30
2018-06-09T07:27:09.331Z,20.30
2018-06-09T07:28:16.050Z,20.40
2018-06-09T07:29:20.052Z,20.40
2018-06-09T07:30:24.053Z,20.50
2018-06-09T07:31:28.064Z,20.50
2018-06-09T07:32:32.052Z,20.40
2018-06-09T07:33:36.083Z,20.40
2018-06-09T07:34:40.080Z,20.50
2018-06-09T07:35:44.155Z,20.60
2018-06-09T07:36:48.176Z,20.60
2018-06-09T07:37:52.174Z,20.70
2018-06-09T07:38:56.143Z,20.70
2018-06-09T07:40:00.139Z,20.70
2018-06-09T07:41:04.150Z,20.70
2018-06-09T07:42:08.210Z,20.70
2018-06-09T07:43:12.253Z,20.70
2018-06-09T07:44:16.307Z,20.70
2018-06-09T07:45:20.308Z,20.70
2018-06-09T07:46:24.346Z,20.80
2018-06-09T07:47:28.415Z,20.80
2018-06-09T07:48:32.417Z,20.80
2018-06-09T07:49:36.446Z,20.90
2018-06-09T07:50:40.753Z,21.00
2018-06-09T07:51:44.756Z,21.00
2018-06-09T07:52:48.771Z,20.90
2018-06-09T07:53:52.771Z,20.90
2018-06-09T07:54:56.810Z,21.00
2018-06-09T07:56:00.830Z,20.90
2018-06-09T07:57:04.866Z,20.90
2018-06-09T07:58:08.857Z,20.80
2018-06-09T07:59:12.867Z,20.80
2018-06-09T08:00:16.930Z,20.70
2018-06-09T08:01:20.938Z,20.70
2018-06-09T08:03:28.653Z,20.80
2018-06-09T08:04:32.673Z,20.80
2018-06-09T08:05:36.712Z,20.70
2018-06-09T08:06:40.730Z,20.70
2018-06-09T08:08:48.467Z,20.70
2018-06-09T08:09:52.668Z,20.70
2018-06-09T08:10:56.661Z,20.80
2018-06-09T08:12:00.685Z,20.80
2018-06-09T08:13:04.691Z,20.80
2018-06-09T08:14:08.721Z,20.90
2018-06-09T08:15:12.794Z,20.80
2018-06-09T08:16:16.822Z,20.90
2018-06-09T08:17:21.149Z,20.90
2018-06-09T08:18:25.159Z,21.00
2018-06-09T08:19:29.219Z,21.00
2018-06-09T08:20:33.164Z,21.00
2018-06-09T08:22:40.914Z,21.20
2018-06-09T08:23:44.891Z,21.20
2018-06-09T08:24:48.882Z,21.30
2018-06-09T08:25:52.896Z,21.30
2018-06-09T08:26:56.952Z,21.30
2018-06-09T08:29:04.739Z,21.10
2018-06-09T08:30:08.706Z,21.10
2018-06-09T08:31:13.000Z,21.20
2018-06-09T08:32:17.038Z,21.20
2018-06-09T08:33:21.123Z,21.40
2018-06-09T08:34:25.158Z,21.40
2018-06-09T08:35:29.156Z,21.40
2018-06-09T08:36:33.182Z,21.40
2018-06-09T08:37:37.277Z,21.40
2018-06-09T08:38:41.277Z,21.50
2018-06-09T08:39:45.272Z,21.70
2018-06-09T08:40:49.336Z,21.80
2018-06-09T08:41:53.422Z,21.80
2018-06-09T08:42:57.404Z,21.80
2018-06-09T08:44:01.463Z,21.80
2018-06-09T08:45:05.491Z,21.80
2018-06-09T08:46:09.508Z,21.70
2018-06-09T08:47:13.535Z,21.70
2018-06-09T08:48:17.550Z,21.80
2018-06-09T08:49:21.637Z,21.80
2018-06-09T08:50:25.638Z,21.80
2018-06-09T08:51:29.694Z,21.90
2018-06-09T08:52:33.721Z,22.00
2018-06-09T08:53:37.723Z,22.10
2018-06-09T08:54:41.715Z,22.10
2018-06-09T08:55:45.678Z,22.10
2018-06-09T08:56:49.663Z,22.20
2018-06-09T08:57:53.657Z,22.20
2018-06-09T08:58:57.633Z,22.30
2018-06-09T09:00:01.625Z,22.40
2018-06-09T09:01:05.623Z,22.50
2018-06-09T09:02:09.641Z,22.50
2018-06-09T09:03:13.690Z,22.40
2018-06-09T09:04:17.675Z,22.30
2018-06-09T09:05:21.854Z,22.40
2018-06-09T09:06:25.876Z,22.50
2018-06-09T09:07:30.036Z,22.60
2018-06-09T09:08:34.207Z,22.80
2018-06-09T09:09:38.291Z,22.80
2018-06-09T09:10:42.336Z,22.70
2018-06-09T09:11:46.355Z,22.60
2018-06-09T09:12:50.393Z,22.60
2018-06-09T09:13:54.477Z,22.70
2018-06-09T09:14:58.511Z,22.70
2018-06-09T09:16:02.614Z,22.60
2018-06-09T09:17:06.650Z,22.70
2018-06-09T09:18:10.657Z,22.80
2018-06-09T09:19:14.696Z,22.80
2018-06-09T09:20:18.671Z,22.90
2018-06-09T09:21:22.659Z,22.80
2018-06-09T09:22:26.710Z,22.80
2018-06-09T09:23:30.683Z,22.80
2018-06-09T09:24:34.663Z,22.80
2018-06-09T09:25:38.640Z,22.80
2018-06-09T09:26:42.656Z,22.80
2018-06-09T09:27:46.609Z,22.70
2018-06-09T09:28:50.610Z,22.70
2018-06-09T09:29:54.594Z,22.80
2018-06-09T09:30:58.734Z,22.90
2018-06-09T09:32:02.822Z,22.80
2018-06-09T09:33:06.811Z,22.80
2018-06-09T09:34:10.788Z,22.70
2018-06-09T09:35:14.759Z,22.70
2018-06-09T09:37:22.546Z,22.60
2018-06-09T09:38:26.500Z,22.70
2018-06-09T09:39:30.495Z,22.80
2018-06-09T09:40:34.518Z,22.70
2018-06-09T09:41:38.696Z,22.70
2018-06-09T09:42:42.690Z,22.70
2018-06-09T09:43:46.793Z,22.70
2018-06-09T09:44:50.776Z,22.70
2018-06-09T09:45:54.782Z,22.80
2018-06-09T09:46:58.864Z,22.80
2018-06-09T09:48:02.887Z,22.80
2018-06-09T09:49:06.895Z,22.70
2018-06-09T09:50:10.920Z,22.50
2018-06-09T09:51:14.959Z,22.50
2018-06-09T09:52:18.968Z,22.40
2018-06-09T09:53:22.977Z,22.40
2018-06-09T09:54:26.955Z,22.40
2018-06-09T09:55:30.931Z,22.40
2018-06-09T09:56:34.954Z,22.40
2018-06-09T09:58:10.062Z,22.60
2018-06-09T09:59:14.160Z,22.60
2018-06-09T10:00:23.210Z,22.70
2018-06-09T10:01:27.450Z,22.90
2018-06-09T10:03:35.162Z,23.00
2018-06-09T10:04:39.296Z,23.10
2018-06-09T10:05:43.606Z,23.20
2018-06-09T10:06:47.629Z,23.20
2018-06-09T10:07:51.702Z,23.10
2018-06-09T10:08:55.685Z,23.00
2018-06-09T10:09:59.774Z,23.10
2018-06-09T10:11:03.928Z,23.00
2018-06-09T10:12:07.995Z,23.00
2018-06-09T10:13:11.999Z,23.10
2018-06-09T10:14:16.082Z,23.10
2018-06-09T10:15:20.138Z,23.10
2018-06-09T10:16:24.151Z,23.00
2018-06-09T10:17:28.244Z,22.90
2018-06-09T10:18:32.248Z,23.00
2018-06-09T10:19:36.342Z,23.00
2018-06-09T10:20:40.376Z,23.10
2018-06-09T10:21:44.363Z,23.20
2018-06-09T10:22:48.737Z,23.30
2018-06-09T10:23:53.130Z,23.40
2018-06-09T10:24:57.096Z,23.50
2018-06-09T10:26:01.167Z,23.50
2018-06-09T10:27:05.304Z,23.60
2018-06-09T10:28:09.556Z,23.50
2018-06-09T10:29:13.692Z,23.40
2018-06-09T10:30:17.732Z,23.30
2018-06-09T10:31:21.812Z,23.30
2018-06-09T10:32:25.808Z,23.20
2018-06-09T10:33:29.915Z,23.30
2018-06-09T10:34:34.367Z,23.20
2018-06-09T10:35:38.468Z,23.20
2018-06-09T10:36:42.615Z,23.20
2018-06-09T10:37:46.775Z,23.20
2018-06-09T10:38:50.933Z,23.30
2018-06-09T10:39:55.018Z,23.30
2018-06-09T10:40:59.290Z,23.30
2018-06-09T10:42:03.504Z,23.30
2018-06-09T10:43:08.022Z,23.40
2018-06-09T10:44:12.783Z,23.40
2018-06-09T10:45:17.122Z,23.50
2018-06-09T10:46:21.135Z,23.50
2018-06-09T10:47:25.650Z,23.40
2018-06-09T10:48:29.916Z,23.50
2018-06-09T10:49:34.389Z,23.50
2018-06-09T10:50:38.572Z,23.50
2018-06-09T10:51:42.554Z,23.60
2018-06-09T10:52:46.608Z,23.60
2018-06-09T10:53:50.733Z,23.60
2018-06-09T10:54:54.809Z,23.70
2018-06-09T10:55:58.775Z,23.90
2018-06-09T10:57:02.779Z,24.00
2018-06-09T10:58:06.756Z,24.10
2018-06-09T10:59:10.735Z,24.30
2018-06-09T11:01:18.430Z,24.20
2018-06-09T11:02:22.462Z,24.20
2018-06-09T11:03:26.487Z,24.20
2018-06-09T11:04:30.515Z,24.20
2018-06-09T11:05:34.486Z,24.10
2018-06-09T11:06:38.490Z,24.10
2018-06-09T11:07:42.474Z,24.20
2018-06-09T11:08:46.476Z,24.20
2018-06-09T11:09:50.475Z,24.10
2018-06-09T11:10:54.518Z,24.00
2018-06-09T11:11:58.522Z,24.00
2018-06-09T11:13:02.708Z,23.80
2018-06-09T11:14:06.687Z,23.70
2018-06-09T11:15:10.689Z,23.70
2018-06-09T11:16:14.690Z,23.90
2018-06-09T11:17:18.761Z,23.90
2018-06-09T11:18:22.763Z,24.00
2018-06-09T11:19:26.778Z,23.90
2018-06-09T11:20:30.798Z,23.90
2018-06-09T11:21:34.786Z,23.90
2018-06-09T11:22:38.749Z,23.90
2018-06-09T11:23:42.774Z,23.90
2018-06-09T11:24:46.793Z,24.00
2018-06-09T11:25:50.775Z,24.10
2018-06-09T11:26:54.795Z,24.10
2018-06-09T11:27:58.860Z,24.20
2018-06-09T11:29:02.864Z,24.10
2018-06-09T11:31:10.531Z,24.30
2018-06-09T11:32:14.542Z,24.50
2018-06-09T11:33:18.594Z,24.50
2018-06-09T11:34:22.578Z,24.60
2018-06-09T11:36:30.323Z,24.80
2018-06-09T11:37:34.378Z,25.00
2018-06-09T11:38:38.384Z,25.10
2018-06-09T11:39:42.327Z,25.00
2018-06-09T11:40:46.347Z,25.00
2018-06-09T11:41:50.384Z,25.00
2018-06-09T11:42:54.383Z,25.00
2018-06-09T11:43:58.492Z,24.80
2018-06-09T11:45:02.706Z,24.70
2018-06-09T11:46:06.711Z,24.70
2018-06-09T11:47:10.875Z,24.70
2018-06-09T11:48:14.846Z,24.60
2018-06-09T11:49:18.922Z,24.60
2018-06-09T11:50:22.969Z,24.80
2018-06-09T11:52:30.599Z,24.90
2018-06-09T11:53:34.670Z,25.00
2018-06-09T11:54:38.688Z,25.10
2018-06-09T11:55:42.700Z,25.00
2018-06-09T11:56:46.763Z,25.00
2018-06-09T11:57:51.064Z,25.00
2018-06-09T11:58:55.066Z,25.10
2018-06-09T11:59:59.111Z,25.10
2018-06-09T12:01:03.123Z,25.20
2018-06-09T12:02:07.109Z,25.40
2018-06-09T12:03:11.139Z,25.50
2018-06-09T12:04:15.161Z,25.60
2018-06-09T12:05:19.175Z,25.70
2018-06-09T12:07:26.910Z,25.80
2018-06-09T12:08:30.926Z,25.70
2018-06-09T12:09:34.931Z,25.60
2018-06-09T12:10:38.959Z,25.70
2018-06-09T12:11:42.998Z,25.90
2018-06-09T12:12:47.022Z,26.00
2018-06-09T12:13:51.027Z,26.20
2018-06-09T12:14:55.013Z,26.30
2018-06-09T12:15:59.017Z,26.40
2018-06-09T12:17:03.302Z,26.40
2018-06-09T12:18:07.387Z,26.30
2018-06-09T12:19:11.559Z,26.30
2018-06-09T12:20:15.611Z,26.30
2018-06-09T12:21:19.637Z,26.40
2018-06-09T12:22:23.813Z,26.60
2018-06-09T12:23:27.832Z,26.70
2018-06-09T12:24:31.811Z,26.80
2018-06-09T12:25:35.803Z,26.90
2018-06-09T12:26:39.848Z,26.80
2018-06-09T12:27:43.843Z,26.80
2018-06-09T12:28:47.821Z,27.00
2018-06-09T12:30:55.480Z,27.00
2018-06-09T12:31:59.470Z,27.10
2018-06-09T12:33:03.480Z,27.00
2018-06-09T12:34:07.413Z,27.00
2018-06-09T12:35:11.429Z,27.10
2018-06-09T12:37:19.036Z,27.30
2018-06-09T12:38:23.030Z,27.30
2018-06-09T12:39:27.074Z,27.50
2018-06-09T12:40:31.054Z,27.50
2018-06-09T12:41:35.246Z,27.50
2018-06-09T12:42:39.298Z,27.60
2018-06-09T12:43:43.301Z,27.70
2018-06-09T12:44:47.265Z,27.80
2018-06-09T12:45:51.267Z,27.80
2018-06-09T12:46:55.264Z,27.80
2018-06-09T12:47:59.314Z,27.70
2018-06-09T12:50:06.962Z,27.40
2018-06-09T12:51:10.996Z,27.40
2018-06-09T12:52:15.037Z,27.60
2018-06-09T12:53:19.038Z,27.80
2018-06-09T12:54:23.063Z,27.90
2018-06-09T12:55:27.061Z,28.10
2018-06-09T12:56:31.063Z,28.20
2018-06-09T12:57:35.028Z,28.30
2018-06-09T12:58:39.059Z,28.50
2018-06-09T12:59:43.031Z,28.50
2018-06-09T13:00:47.028Z,28.70
2018-06-09T13:01:50.973Z,28.40
2018-06-09T13:02:54.978Z,28.20
2018-06-09T13:03:58.929Z,28.00
2018-06-09T13:05:02.904Z,27.90
2018-06-09T13:06:06.915Z,27.70
2018-06-09T13:07:10.904Z,27.80
2018-06-09T13:08:14.883Z,27.90
2018-06-09T13:09:18.877Z,27.80
2018-06-09T13:10:22.833Z,28.00
2018-06-09T13:11:26.824Z,28.30
2018-06-09T13:12:31.300Z,28.40
2018-06-09T13:13:35.266Z,28.40
2018-06-09T13:14:39.266Z,28.50
2018-06-09T13:15:43.255Z,28.60
2018-06-09T13:16:47.194Z,28.60
2018-06-09T13:17:51.187Z,28.60
2018-06-09T13:18:55.190Z,28.60
2018-06-09T13:19:59.145Z,28.70
2018-06-09T13:21:03.164Z,29.00
2018-06-09T13:22:07.098Z,29.00
2018-06-09T13:23:11.149Z,29.00
2018-06-09T13:24:15.147Z,29.10
2018-06-09T13:25:19.127Z,29.10
2018-06-09T13:26:23.130Z,29.10
2018-06-09T13:27:27.111Z,28.80
2018-06-09T13:28:31.099Z,28.40
2018-06-09T13:29:35.051Z,27.70
2018-06-09T13:30:39.123Z,27.60
2018-06-09T13:31:43.148Z,27.40
2018-06-09T13:32:47.139Z,27.30
2018-06-09T13:33:51.135Z,27.20
2018-06-09T13:34:55.126Z,27.20
2018-06-09T13:35:59.145Z,27.30
2018-06-09T13:37:03.166Z,27.70
2018-06-09T13:38:07.134Z,28.10
2018-06-09T13:39:11.331Z,28.50
2018-06-09T13:40:15.375Z,28.90
2018-06-09T13:41:19.358Z,29.00
2018-06-09T13:42:23.351Z,29.20
2018-06-09T13:43:27.377Z,29.30
2018-06-09T13:44:31.318Z,29.20
2018-06-09T13:45:35.286Z,29.50
2018-06-09T13:46:39.268Z,29.80
2018-06-09T13:47:43.245Z,30.10
2018-06-09T13:48:47.225Z,30.20
2018-06-09T13:49:51.236Z,30.40
2018-06-09T13:50:55.226Z,30.50
2018-06-09T13:51:59.169Z,30.60
2018-06-09T13:53:03.215Z,30.60
2018-06-09T13:54:07.216Z,30.50
2018-06-09T13:55:11.198Z,30.40
2018-06-09T13:56:15.194Z,30.50
2018-06-09T13:57:19.192Z,30.60
2018-06-09T13:58:23.165Z,30.30
2018-06-09T13:59:27.195Z,30.20
2018-06-09T14:00:31.172Z,29.90
2018-06-09T14:01:35.861Z,29.40
2018-06-09T14:02:39.836Z,28.80
2018-06-09T14:03:43.823Z,28.60
2018-06-09T14:04:47.977Z,28.40
2018-06-09T14:05:52.010Z,28.30
2018-06-09T14:06:55.995Z,28.10
2018-06-09T14:08:00.766Z,27.90
2018-06-09T14:09:06.907Z,27.80
2018-06-09T14:10:10.992Z,27.70
2018-06-09T14:11:15.041Z,27.70
2018-06-09T14:12:19.068Z,27.90
2018-06-09T14:13:23.055Z,28.20
2018-06-09T14:14:27.011Z,28.60